sensor_id;sensor_type;location;lat;lon;timestamp;P1;durP1;ratioP1;P2;durP2;ratioP2
22166;SDS011;11249;52.468;13.776;2023-05-10T00:01:50;7.78;;;6.20;;
22166;SDS011;11249;52.468;13.776;2023-05-10T00:04:17;7.43;;;5.82;;
22166;SDS011;11249;52.468;13.776;2023-05-10T00:06:44;7.28;;;5.78;;
22166;SDS011;11249;52.468;13.776;2023-05-10T00:09:11;8.15;;;5.65;;
22166;SDS011;11249;52.468;13.776;2023-05-10T00:11:37;7.90;;;5.20;;
22166;SDS011;11249;52.468;13.776;2023-05-10T00:14:04;9.30;;;6.03;;
22166;SDS011;11249;52.468;13.776;2023-05-10T00:16:31;9.18;;;5.63;;
22166;SDS011;11249;52.468;13.776;2023-05-10T00:18:58;11.43;;;6.05;;
22166;SDS011;11249;52.468;13.776;2023-05-10T00:21:24;6.78;;;6.07;;
22166;SDS011;11249;52.468;13.776;2023-05-10T00:23:51;8.05;;;6.38;;
22166;SDS011;11249;52.468;13.776;2023-05-10T00:26:18;9.63;;;5.32;;
22166;SDS011;11249;52.468;13.776;2023-05-10T00:28:44;7.68;;;5.80;;
22166;SDS011;11249;52.468;13.776;2023-05-10T00:31:11;8.50;;;6.22;;
22166;SDS011;11249;52.468;13.776;2023-05-10T00:33:38;8.23;;;6.20;;
22166;SDS011;11249;52.468;13.776;2023-05-10T00:36:05;9.23;;;6.18;;
22166;SDS011;11249;52.468;13.776;2023-05-10T00:38:33;7.18;;;5.93;;
22166;SDS011;11249;52.468;13.776;2023-05-10T00:41:00;7.25;;;6.05;;
22166;SDS011;11249;52.468;13.776;2023-05-10T00:43:27;9.35;;;6.40;;
22166;SDS011;11249;52.468;13.776;2023-05-10T00:45:53;10.38;;;6.03;;
22166;SDS011;11249;52.468;13.776;2023-05-10T00:48:20;9.88;;;6.63;;
22166;SDS011;11249;52.468;13.776;2023-05-10T00:50:48;11.90;;;5.97;;
22166;SDS011;11249;52.468;13.776;2023-05-10T00:53:14;9.98;;;5.97;;
22166;SDS011;11249;52.468;13.776;2023-05-10T00:55:43;7.85;;;6.00;;
22166;SDS011;11249;52.468;13.776;2023-05-10T00:58:09;10.95;;;6.75;;
22166;SDS011;11249;52.468;13.776;2023-05-10T01:00:36;6.70;;;5.88;;
22166;SDS011;11249;52.468;13.776;2023-05-10T01:03:07;7.78;;;6.22;;
22166;SDS011;11249;52.468;13.776;2023-05-10T01:05:34;10.10;;;6.93;;
22166;SDS011;11249;52.468;13.776;2023-05-10T01:08:01;9.45;;;6.80;;
22166;SDS011;11249;52.468;13.776;2023-05-10T01:10:28;7.40;;;6.45;;
22166;SDS011;11249;52.468;13.776;2023-05-10T01:12:56;8.57;;;6.95;;
22166;SDS011;11249;52.468;13.776;2023-05-10T01:15:24;10.95;;;6.30;;
22166;SDS011;11249;52.468;13.776;2023-05-10T01:17:52;11.38;;;6.93;;
22166;SDS011;11249;52.468;13.776;2023-05-10T01:20:19;12.38;;;6.72;;
22166;SDS011;11249;52.468;13.776;2023-05-10T01:23:04;8.57;;;6.45;;
22166;SDS011;11249;52.468;13.776;2023-05-10T01:28:47;11.95;;;6.38;;
22166;SDS011;11249;52.468;13.776;2023-05-10T01:31:30;10.35;;;6.60;;
22166;SDS011;11249;52.468;13.776;2023-05-10T01:34:20;10.07;;;6.00;;
22166;SDS011;11249;52.468;13.776;2023-05-10T01:37:06;9.35;;;6.30;;
22166;SDS011;11249;52.468;13.776;2023-05-10T01:39:47;10.32;;;6.05;;
22166;SDS011;11249;52.468;13.776;2023-05-10T01:42:36;8.05;;;6.28;;
22166;SDS011;11249;52.468;13.776;2023-05-10T01:45:20;10.88;;;6.07;;
22166;SDS011;11249;52.468;13.776;2023-05-10T01:47:54;8.15;;;6.50;;
22166;SDS011;11249;52.468;13.776;2023-05-10T01:50:30;12.05;;;7.28;;
22166;SDS011;11249;52.468;13.776;2023-05-10T01:52:58;11.55;;;7.10;;
22166;SDS011;11249;52.468;13.776;2023-05-10T01:55:27;9.55;;;6.10;;
22166;SDS011;11249;52.468;13.776;2023-05-10T01:57:58;10.40;;;6.88;;
22166;SDS011;11249;52.468;13.776;2023-05-10T02:00:29;10.88;;;6.43;;
22166;SDS011;11249;52.468;13.776;2023-05-10T02:02:57;10.10;;;6.00;;
22166;SDS011;11249;52.468;13.776;2023-05-10T02:05:26;8.88;;;5.75;;
22166;SDS011;11249;52.468;13.776;2023-05-10T02:07:55;8.93;;;5.93;;
22166;SDS011;11249;52.468;13.776;2023-05-10T02:10:24;10.32;;;6.28;;
22166;SDS011;11249;52.468;13.776;2023-05-10T02:12:52;9.52;;;6.15;;
22166;SDS011;11249;52.468;13.776;2023-05-10T02:15:22;6.60;;;5.93;;
22166;SDS011;11249;52.468;13.776;2023-05-10T02:17:50;9.65;;;6.15;;
22166;SDS011;11249;52.468;13.776;2023-05-10T02:20:20;12.32;;;5.97;;
22166;SDS011;11249;52.468;13.776;2023-05-10T02:22:50;12.80;;;5.78;;
22166;SDS011;11249;52.468;13.776;2023-05-10T02:25:20;10.65;;;5.65;;
22166;SDS011;11249;52.468;13.776;2023-05-10T02:27:49;8.27;;;5.85;;
22166;SDS011;11249;52.468;13.776;2023-05-10T02:30:17;12.18;;;6.45;;
22166;SDS011;11249;52.468;13.776;2023-05-10T02:32:45;7.90;;;5.50;;
22166;SDS011;11249;52.468;13.776;2023-05-10T02:35:13;10.02;;;6.03;;
22166;SDS011;11249;52.468;13.776;2023-05-10T02:37:41;8.95;;;5.70;;
22166;SDS011;11249;52.468;13.776;2023-05-10T02:40:09;10.57;;;5.78;;
22166;SDS011;11249;52.468;13.776;2023-05-10T02:42:37;8.73;;;5.68;;
22166;SDS011;11249;52.468;13.776;2023-05-10T02:45:10;6.38;;;5.55;;
22166;SDS011;11249;52.468;13.776;2023-05-10T02:50:05;7.80;;;5.90;;
22166;SDS011;11249;52.468;13.776;2023-05-10T02:52:39;9.38;;;6.03;;
22166;SDS011;11249;52.468;13.776;2023-05-10T02:55:08;7.68;;;5.68;;
22166;SDS011;11249;52.468;13.776;2023-05-10T02:57:38;9.50;;;5.70;;
22166;SDS011;11249;52.468;13.776;2023-05-10T03:00:09;10.95;;;5.72;;
22166;SDS011;11249;52.468;13.776;2023-05-10T03:02:36;8.70;;;6.13;;
22166;SDS011;11249;52.468;13.776;2023-05-10T03:05:03;9.43;;;5.63;;
22166;SDS011;11249;52.468;13.776;2023-05-10T03:07:30;7.63;;;6.15;;
22166;SDS011;11249;52.468;13.776;2023-05-10T03:10:01;12.75;;;5.93;;
22166;SDS011;11249;52.468;13.776;2023-05-10T03:12:41;9.85;;;6.07;;
22166;SDS011;11249;52.468;13.776;2023-05-10T03:18:10;9.75;;;5.93;;
22166;SDS011;11249;52.468;13.776;2023-05-10T03:20:43;12.07;;;6.20;;
22166;SDS011;11249;52.468;13.776;2023-05-10T03:25:44;13.38;;;7.40;;
22166;SDS011;11249;52.468;13.776;2023-05-10T03:28:14;9.18;;;6.03;;
22166;SDS011;11249;52.468;13.776;2023-05-10T03:30:42;9.52;;;6.30;;
22166;SDS011;11249;52.468;13.776;2023-05-10T03:33:09;12.80;;;5.88;;
22166;SDS011;11249;52.468;13.776;2023-05-10T03:35:36;6.57;;;5.05;;
22166;SDS011;11249;52.468;13.776;2023-05-10T03:38:03;8.75;;;5.70;;
22166;SDS011;11249;52.468;13.776;2023-05-10T03:40:30;9.43;;;6.13;;
22166;SDS011;11249;52.468;13.776;2023-05-10T03:42:58;9.32;;;5.55;;
22166;SDS011;11249;52.468;13.776;2023-05-10T03:45:25;8.23;;;5.15;;
22166;SDS011;11249;52.468;13.776;2023-05-10T03:47:53;10.73;;;6.10;;
22166;SDS011;11249;52.468;13.776;2023-05-10T03:50:20;9.65;;;5.13;;
22166;SDS011;11249;52.468;13.776;2023-05-10T03:52:47;10.27;;;6.03;;
22166;SDS011;11249;52.468;13.776;2023-05-10T03:55:14;7.93;;;6.07;;
22166;SDS011;11249;52.468;13.776;2023-05-10T03:57:41;9.52;;;6.07;;
22166;SDS011;11249;52.468;13.776;2023-05-10T04:00:08;13.65;;;5.57;;
22166;SDS011;11249;52.468;13.776;2023-05-10T04:02:35;8.10;;;5.47;;
22166;SDS011;11249;52.468;13.776;2023-05-10T04:05:03;8.48;;;4.97;;
22166;SDS011;11249;52.468;13.776;2023-05-10T04:07:30;9.73;;;5.80;;
22166;SDS011;11249;52.468;13.776;2023-05-10T04:09:57;9.27;;;6.13;;
22166;SDS011;11249;52.468;13.776;2023-05-10T04:12:24;7.90;;;5.70;;
22166;SDS011;11249;52.468;13.776;2023-05-10T04:14:50;7.75;;;5.82;;
22166;SDS011;11249;52.468;13.776;2023-05-10T04:17:17;7.85;;;5.55;;
22166;SDS011;11249;52.468;13.776;2023-05-10T04:19:44;10.90;;;5.90;;
22166;SDS011;11249;52.468;13.776;2023-05-10T04:22:10;13.88;;;5.57;;
22166;SDS011;11249;52.468;13.776;2023-05-10T04:24:37;10.27;;;5.65;;
22166;SDS011;11249;52.468;13.776;2023-05-10T04:27:04;7.45;;;5.60;;
22166;SDS011;11249;52.468;13.776;2023-05-10T04:29:31;9.18;;;5.43;;
22166;SDS011;11249;52.468;13.776;2023-05-10T04:31:57;10.52;;;5.22;;
22166;SDS011;11249;52.468;13.776;2023-05-10T04:34:24;8.73;;;5.53;;
22166;SDS011;11249;52.468;13.776;2023-05-10T04:36:51;12.15;;;5.43;;
22166;SDS011;11249;52.468;13.776;2023-05-10T04:39:18;10.10;;;5.63;;
22166;SDS011;11249;52.468;13.776;2023-05-10T04:41:45;12.48;;;5.95;;
22166;SDS011;11249;52.468;13.776;2023-05-10T04:44:11;7.25;;;5.70;;
22166;SDS011;11249;52.468;13.776;2023-05-10T04:46:38;7.55;;;5.38;;
22166;SDS011;11249;52.468;13.776;2023-05-10T04:49:05;13.82;;;5.15;;
22166;SDS011;11249;52.468;13.776;2023-05-10T04:51:32;7.13;;;5.05;;
22166;SDS011;11249;52.468;13.776;2023-05-10T04:53:58;7.03;;;5.07;;
22166;SDS011;11249;52.468;13.776;2023-05-10T04:56:31;7.43;;;5.15;;
22166;SDS011;11249;52.468;13.776;2023-05-10T04:58:58;9.40;;;5.47;;
22166;SDS011;11249;52.468;13.776;2023-05-10T05:01:25;7.10;;;4.82;;
22166;SDS011;11249;52.468;13.776;2023-05-10T05:03:52;7.43;;;4.28;;
22166;SDS011;11249;52.468;13.776;2023-05-10T05:06:19;8.45;;;4.57;;
22166;SDS011;11249;52.468;13.776;2023-05-10T05:08:51;8.23;;;4.60;;
22166;SDS011;11249;52.468;13.776;2023-05-10T05:11:17;7.70;;;5.13;;
22166;SDS011;11249;52.468;13.776;2023-05-10T05:13:44;7.07;;;4.57;;
22166;SDS011;11249;52.468;13.776;2023-05-10T05:16:11;6.35;;;4.50;;
22166;SDS011;11249;52.468;13.776;2023-05-10T05:18:38;7.68;;;4.88;;
22166;SDS011;11249;52.468;13.776;2023-05-10T05:21:14;9.18;;;4.70;;
22166;SDS011;11249;52.468;13.776;2023-05-10T05:23:42;8.50;;;4.88;;
22166;SDS011;11249;52.468;13.776;2023-05-10T05:26:09;8.23;;;4.35;;
22166;SDS011;11249;52.468;13.776;2023-05-10T05:28:37;9.80;;;4.75;;
22166;SDS011;11249;52.468;13.776;2023-05-10T05:31:04;6.10;;;4.13;;
22166;SDS011;11249;52.468;13.776;2023-05-10T05:33:31;6.53;;;4.70;;
22166;SDS011;11249;52.468;13.776;2023-05-10T05:36:02;5.47;;;3.50;;
22166;SDS011;11249;52.468;13.776;2023-05-10T05:38:30;4.72;;;3.83;;
22166;SDS011;11249;52.468;13.776;2023-05-10T05:40:57;8.02;;;4.40;;
22166;SDS011;11249;52.468;13.776;2023-05-10T05:43:24;6.68;;;4.07;;
22166;SDS011;11249;52.468;13.776;2023-05-10T05:45:54;4.82;;;3.78;;
22166;SDS011;11249;52.468;13.776;2023-05-10T05:48:22;4.07;;;3.60;;
22166;SDS011;11249;52.468;13.776;2023-05-10T05:50:48;10.18;;;4.00;;
22166;SDS011;11249;52.468;13.776;2023-05-10T05:53:15;6.05;;;4.43;;
22166;SDS011;11249;52.468;13.776;2023-05-10T05:55:55;5.60;;;4.05;;
22166;SDS011;11249;52.468;13.776;2023-05-10T05:58:24;5.63;;;3.80;;
22166;SDS011;11249;52.468;13.776;2023-05-10T06:00:51;6.55;;;4.20;;
22166;SDS011;11249;52.468;13.776;2023-05-10T06:03:18;4.88;;;4.00;;
22166;SDS011;11249;52.468;13.776;2023-05-10T06:05:45;4.15;;;3.13;;
22166;SDS011;11249;52.468;13.776;2023-05-10T06:08:12;6.28;;;3.35;;
22166;SDS011;11249;52.468;13.776;2023-05-10T06:10:39;7.28;;;3.72;;
22166;SDS011;11249;52.468;13.776;2023-05-10T06:13:05;6.57;;;3.88;;
22166;SDS011;11249;52.468;13.776;2023-05-10T06:15:32;6.75;;;3.72;;
22166;SDS011;11249;52.468;13.776;2023-05-10T06:17:59;5.43;;;3.97;;
22166;SDS011;11249;52.468;13.776;2023-05-10T06:20:26;4.55;;;3.45;;
22166;SDS011;11249;52.468;13.776;2023-05-10T06:22:53;5.68;;;3.40;;
22166;SDS011;11249;52.468;13.776;2023-05-10T06:25:19;5.43;;;3.22;;
22166;SDS011;11249;52.468;13.776;2023-05-10T06:27:46;5.72;;;3.60;;
22166;SDS011;11249;52.468;13.776;2023-05-10T06:30:18;3.75;;;2.95;;
22166;SDS011;11249;52.468;13.776;2023-05-10T06:32:45;4.18;;;3.53;;
22166;SDS011;11249;52.468;13.776;2023-05-10T06:35:12;4.05;;;3.00;;
22166;SDS011;11249;52.468;13.776;2023-05-10T06:37:39;4.25;;;3.05;;
22166;SDS011;11249;52.468;13.776;2023-05-10T06:40:06;4.82;;;2.97;;
22166;SDS011;11249;52.468;13.776;2023-05-10T06:42:33;3.80;;;3.20;;
22166;SDS011;11249;52.468;13.776;2023-05-10T06:45:00;2.95;;;2.65;;
22166;SDS011;11249;52.468;13.776;2023-05-10T06:47:26;6.75;;;3.28;;
22166;SDS011;11249;52.468;13.776;2023-05-10T06:49:53;7.47;;;2.95;;
22166;SDS011;11249;52.468;13.776;2023-05-10T06:52:20;4.97;;;2.90;;
22166;SDS011;11249;52.468;13.776;2023-05-10T06:54:47;5.03;;;2.90;;
22166;SDS011;11249;52.468;13.776;2023-05-10T06:57:14;9.25;;;3.47;;
22166;SDS011;11249;52.468;13.776;2023-05-10T06:59:56;4.97;;;3.17;;
22166;SDS011;11249;52.468;13.776;2023-05-10T07:02:24;4.18;;;2.65;;
22166;SDS011;11249;52.468;13.776;2023-05-10T07:04:50;4.45;;;2.95;;
22166;SDS011;11249;52.468;13.776;2023-05-10T07:07:18;3.53;;;3.05;;
22166;SDS011;11249;52.468;13.776;2023-05-10T07:09:45;4.72;;;3.13;;
22166;SDS011;11249;52.468;13.776;2023-05-10T07:12:11;6.68;;;2.78;;
22166;SDS011;11249;52.468;13.776;2023-05-10T07:14:40;3.70;;;2.63;;
22166;SDS011;11249;52.468;13.776;2023-05-10T07:17:07;4.75;;;2.83;;
22166;SDS011;11249;52.468;13.776;2023-05-10T07:19:34;6.75;;;3.22;;
22166;SDS011;11249;52.468;13.776;2023-05-10T07:22:01;4.70;;;3.20;;
22166;SDS011;11249;52.468;13.776;2023-05-10T07:24:28;4.85;;;2.67;;
22166;SDS011;11249;52.468;13.776;2023-05-10T07:26:55;4.63;;;2.47;;
22166;SDS011;11249;52.468;13.776;2023-05-10T07:29:21;5.35;;;2.90;;
22166;SDS011;11249;52.468;13.776;2023-05-10T07:31:48;11.02;;;3.33;;
22166;SDS011;11249;52.468;13.776;2023-05-10T07:34:15;6.80;;;2.85;;
22166;SDS011;11249;52.468;13.776;2023-05-10T07:36:42;5.57;;;2.75;;
22166;SDS011;11249;52.468;13.776;2023-05-10T07:39:08;5.57;;;3.00;;
22166;SDS011;11249;52.468;13.776;2023-05-10T07:41:37;4.13;;;3.05;;
22166;SDS011;11249;52.468;13.776;2023-05-10T07:44:05;4.60;;;3.10;;
22166;SDS011;11249;52.468;13.776;2023-05-10T07:46:32;7.38;;;3.55;;
22166;SDS011;11249;52.468;13.776;2023-05-10T07:48:59;4.00;;;2.70;;
22166;SDS011;11249;52.468;13.776;2023-05-10T07:51:26;4.43;;;3.35;;
22166;SDS011;11249;52.468;13.776;2023-05-10T07:53:54;6.95;;;2.70;;
22166;SDS011;11249;52.468;13.776;2023-05-10T07:56:22;3.80;;;2.60;;
22166;SDS011;11249;52.468;13.776;2023-05-10T07:58:54;11.02;;;2.88;;
22166;SDS011;11249;52.468;13.776;2023-05-10T08:01:21;4.85;;;2.85;;
22166;SDS011;11249;52.468;13.776;2023-05-10T08:03:48;4.47;;;2.47;;
22166;SDS011;11249;52.468;13.776;2023-05-10T08:06:15;5.63;;;2.67;;
22166;SDS011;11249;52.468;13.776;2023-05-10T08:08:42;4.72;;;3.03;;
22166;SDS011;11249;52.468;13.776;2023-05-10T08:11:11;9.05;;;2.70;;
22166;SDS011;11249;52.468;13.776;2023-05-10T08:13:38;5.82;;;2.65;;
22166;SDS011;11249;52.468;13.776;2023-05-10T08:16:05;4.85;;;3.15;;
22166;SDS011;11249;52.468;13.776;2023-05-10T08:18:31;5.38;;;2.92;;
22166;SDS011;11249;52.468;13.776;2023-05-10T08:20:58;4.40;;;3.17;;
22166;SDS011;11249;52.468;13.776;2023-05-10T08:23:25;6.57;;;3.10;;
22166;SDS011;11249;52.468;13.776;2023-05-10T08:25:52;2.72;;;2.45;;
22166;SDS011;11249;52.468;13.776;2023-05-10T08:28:18;3.92;;;2.63;;
22166;SDS011;11249;52.468;13.776;2023-05-10T08:30:45;3.13;;;2.65;;
22166;SDS011;11249;52.468;13.776;2023-05-10T08:33:12;3.17;;;2.88;;
22166;SDS011;11249;52.468;13.776;2023-05-10T08:35:38;7.50;;;3.10;;
22166;SDS011;11249;52.468;13.776;2023-05-10T08:38:05;4.38;;;2.70;;
22166;SDS011;11249;52.468;13.776;2023-05-10T08:40:32;7.63;;;3.20;;
22166;SDS011;11249;52.468;13.776;2023-05-10T08:43:03;7.40;;;3.00;;
22166;SDS011;11249;52.468;13.776;2023-05-10T08:45:36;6.47;;;3.45;;
22166;SDS011;11249;52.468;13.776;2023-05-10T08:48:05;5.68;;;3.10;;
22166;SDS011;11249;52.468;13.776;2023-05-10T08:50:33;4.47;;;3.53;;
22166;SDS011;11249;52.468;13.776;2023-05-10T08:53:04;4.05;;;2.75;;
22166;SDS011;11249;52.468;13.776;2023-05-10T08:58:00;4.80;;;3.22;;
22166;SDS011;11249;52.468;13.776;2023-05-10T09:00:26;11.90;;;6.75;;
22166;SDS011;11249;52.468;13.776;2023-05-10T09:02:54;7.85;;;4.50;;
22166;SDS011;11249;52.468;13.776;2023-05-10T09:05:21;8.48;;;3.40;;
22166;SDS011;11249;52.468;13.776;2023-05-10T09:07:48;4.78;;;2.95;;
22166;SDS011;11249;52.468;13.776;2023-05-10T09:10:15;5.38;;;2.80;;
22166;SDS011;11249;52.468;13.776;2023-05-10T09:12:42;5.63;;;2.50;;
22166;SDS011;11249;52.468;13.776;2023-05-10T09:15:11;5.05;;;2.80;;
22166;SDS011;11249;52.468;13.776;2023-05-10T09:17:41;8.32;;;3.00;;
22166;SDS011;11249;52.468;13.776;2023-05-10T09:20:09;4.38;;;3.38;;
22166;SDS011;11249;52.468;13.776;2023-05-10T09:22:36;5.07;;;3.20;;
22166;SDS011;11249;52.468;13.776;2023-05-10T09:25:08;3.50;;;2.63;;
22166;SDS011;11249;52.468;13.776;2023-05-10T09:27:40;4.22;;;2.90;;
22166;SDS011;11249;52.468;13.776;2023-05-10T09:30:10;3.67;;;2.92;;
22166;SDS011;11249;52.468;13.776;2023-05-10T09:32:45;3.25;;;2.95;;
22166;SDS011;11249;52.468;13.776;2023-05-10T09:35:14;5.72;;;3.28;;
22166;SDS011;11249;52.468;13.776;2023-05-10T09:37:43;3.85;;;2.92;;
22166;SDS011;11249;52.468;13.776;2023-05-10T09:40:15;4.68;;;3.15;;
22166;SDS011;11249;52.468;13.776;2023-05-10T09:42:59;6.63;;;3.13;;
22166;SDS011;11249;52.468;13.776;2023-05-10T09:45:29;10.45;;;3.38;;
22166;SDS011;11249;52.468;13.776;2023-05-10T09:48:01;6.65;;;3.20;;
22166;SDS011;11249;52.468;13.776;2023-05-10T09:50:29;5.50;;;2.65;;
22166;SDS011;11249;52.468;13.776;2023-05-10T09:52:59;5.07;;;3.17;;
22166;SDS011;11249;52.468;13.776;2023-05-10T09:55:39;4.32;;;2.40;;
22166;SDS011;11249;52.468;13.776;2023-05-10T09:58:06;4.68;;;2.95;;
22166;SDS011;11249;52.468;13.776;2023-05-10T10:00:38;3.88;;;2.90;;
22166;SDS011;11249;52.468;13.776;2023-05-10T10:03:06;6.57;;;3.10;;
22166;SDS011;11249;52.468;13.776;2023-05-10T10:05:39;4.93;;;3.20;;
22166;SDS011;11249;52.468;13.776;2023-05-10T10:08:08;4.05;;;2.95;;
22166;SDS011;11249;52.468;13.776;2023-05-10T10:10:36;5.63;;;2.75;;
22166;SDS011;11249;52.468;13.776;2023-05-10T10:13:04;3.92;;;2.50;;
22166;SDS011;11249;52.468;13.776;2023-05-10T10:15:32;5.40;;;3.10;;
22166;SDS011;11249;52.468;13.776;2023-05-10T10:18:00;4.93;;;2.95;;
22166;SDS011;11249;52.468;13.776;2023-05-10T10:20:27;2.70;;;2.50;;
22166;SDS011;11249;52.468;13.776;2023-05-10T10:22:54;5.80;;;2.92;;
22166;SDS011;11249;52.468;13.776;2023-05-10T10:25:21;3.15;;;2.63;;
22166;SDS011;11249;52.468;13.776;2023-05-10T10:30:34;6.90;;;2.75;;
22166;SDS011;11249;52.468;13.776;2023-05-10T10:33:16;4.00;;;2.80;;
22166;SDS011;11249;52.468;13.776;2023-05-10T10:36:05;6.20;;;2.78;;
22166;SDS011;11249;52.468;13.776;2023-05-10T10:46:59;6.53;;;2.90;;
22166;SDS011;11249;52.468;13.776;2023-05-10T10:49:31;6.22;;;2.70;;
22166;SDS011;11249;52.468;13.776;2023-05-10T10:55:01;5.20;;;2.60;;
22166;SDS011;11249;52.468;13.776;2023-05-10T11:00:17;6.35;;;2.60;;
22166;SDS011;11249;52.468;13.776;2023-05-10T11:03:05;5.40;;;2.72;;
22166;SDS011;11249;52.468;13.776;2023-05-10T11:05:43;2.97;;;2.67;;
22166;SDS011;11249;52.468;13.776;2023-05-10T11:13:40;3.42;;;2.30;;
22166;SDS011;11249;52.468;13.776;2023-05-10T11:18:37;4.75;;;2.83;;
22166;SDS011;11249;52.468;13.776;2023-05-10T11:21:04;6.28;;;3.08;;
22166;SDS011;11249;52.468;13.776;2023-05-10T11:23:32;3.65;;;2.60;;
22166;SDS011;11249;52.468;13.776;2023-05-10T11:26:13;5.30;;;2.80;;
22166;SDS011;11249;52.468;13.776;2023-05-10T11:28:43;6.43;;;2.85;;
22166;SDS011;11249;52.468;13.776;2023-05-10T11:31:15;10.30;;;3.00;;
22166;SDS011;11249;52.468;13.776;2023-05-10T11:33:50;6.03;;;2.47;;
22166;SDS011;11249;52.468;13.776;2023-05-10T11:36:23;4.20;;;2.42;;
22166;SDS011;11249;52.468;13.776;2023-05-10T11:38:55;6.45;;;2.40;;
22166;SDS011;11249;52.468;13.776;2023-05-10T11:41:23;6.10;;;2.45;;
22166;SDS011;11249;52.468;13.776;2023-05-10T11:43:51;3.83;;;2.35;;
22166;SDS011;11249;52.468;13.776;2023-05-10T11:46:19;4.47;;;2.55;;
22166;SDS011;11249;52.468;13.776;2023-05-10T11:48:51;7.03;;;2.17;;
22166;SDS011;11249;52.468;13.776;2023-05-10T11:51:20;6.57;;;2.40;;
22166;SDS011;11249;52.468;13.776;2023-05-10T11:53:52;5.82;;;2.30;;
22166;SDS011;11249;52.468;13.776;2023-05-10T11:56:20;2.65;;;2.30;;
22166;SDS011;11249;52.468;13.776;2023-05-10T11:58:54;5.15;;;2.60;;
22166;SDS011;11249;52.468;13.776;2023-05-10T12:01:22;4.25;;;2.10;;
22166;SDS011;11249;52.468;13.776;2023-05-10T12:03:53;8.38;;;2.35;;
22166;SDS011;11249;52.468;13.776;2023-05-10T12:06:28;6.00;;;2.70;;
22166;SDS011;11249;52.468;13.776;2023-05-10T12:08:57;6.38;;;2.65;;
22166;SDS011;11249;52.468;13.776;2023-05-10T12:11:25;7.65;;;3.17;;
22166;SDS011;11249;52.468;13.776;2023-05-10T12:13:53;3.80;;;1.95;;
22166;SDS011;11249;52.468;13.776;2023-05-10T12:16:25;4.65;;;2.38;;
22166;SDS011;11249;52.468;13.776;2023-05-10T12:18:55;6.30;;;2.38;;
22166;SDS011;11249;52.468;13.776;2023-05-10T12:21:23;5.07;;;2.10;;
22166;SDS011;11249;52.468;13.776;2023-05-10T12:23:51;4.25;;;2.28;;
22166;SDS011;11249;52.468;13.776;2023-05-10T12:26:23;4.97;;;2.45;;
22166;SDS011;11249;52.468;13.776;2023-05-10T12:28:52;2.90;;;2.50;;
22166;SDS011;11249;52.468;13.776;2023-05-10T12:31:20;5.18;;;2.45;;
22166;SDS011;11249;52.468;13.776;2023-05-10T12:33:47;4.00;;;2.05;;
22166;SDS011;11249;52.468;13.776;2023-05-10T12:36:15;4.72;;;2.03;;
22166;SDS011;11249;52.468;13.776;2023-05-10T12:38:45;4.25;;;2.03;;
22166;SDS011;11249;52.468;13.776;2023-05-10T12:41:14;3.05;;;2.17;;
22166;SDS011;11249;52.468;13.776;2023-05-10T12:43:43;4.75;;;2.20;;
22166;SDS011;11249;52.468;13.776;2023-05-10T12:48:38;2.40;;;1.77;;
22166;SDS011;11249;52.468;13.776;2023-05-10T12:51:06;4.65;;;2.10;;
22166;SDS011;11249;52.468;13.776;2023-05-10T12:53:35;3.97;;;2.45;;
22166;SDS011;11249;52.468;13.776;2023-05-10T12:56:02;3.88;;;2.00;;
22166;SDS011;11249;52.468;13.776;2023-05-10T12:58:29;4.10;;;2.40;;
22166;SDS011;11249;52.468;13.776;2023-05-10T13:01:01;2.00;;;1.65;;
22166;SDS011;11249;52.468;13.776;2023-05-10T13:03:28;2.08;;;1.70;;
22166;SDS011;11249;52.468;13.776;2023-05-10T13:05:55;6.38;;;1.83;;
22166;SDS011;11249;52.468;13.776;2023-05-10T13:08:22;2.03;;;1.70;;
22166;SDS011;11249;52.468;13.776;2023-05-10T13:10:48;3.67;;;1.90;;
22166;SDS011;11249;52.468;13.776;2023-05-10T13:13:15;3.08;;;2.10;;
22166;SDS011;11249;52.468;13.776;2023-05-10T13:15:42;5.13;;;1.77;;
22166;SDS011;11249;52.468;13.776;2023-05-10T13:18:08;2.78;;;1.45;;
22166;SDS011;11249;52.468;13.776;2023-05-10T13:20:36;3.95;;;1.90;;
22166;SDS011;11249;52.468;13.776;2023-05-10T13:23:02;5.95;;;2.05;;
22166;SDS011;11249;52.468;13.776;2023-05-10T13:25:29;5.63;;;2.13;;
22166;SDS011;11249;52.468;13.776;2023-05-10T13:27:56;4.43;;;2.10;;
22166;SDS011;11249;52.468;13.776;2023-05-10T13:30:23;5.30;;;1.50;;
22166;SDS011;11249;52.468;13.776;2023-05-10T13:32:50;4.93;;;1.73;;
22166;SDS011;11249;52.468;13.776;2023-05-10T13:35:17;4.28;;;1.90;;
22166;SDS011;11249;52.468;13.776;2023-05-10T13:37:43;2.00;;;1.70;;
22166;SDS011;11249;52.468;13.776;2023-05-10T13:40:10;4.22;;;1.95;;
22166;SDS011;11249;52.468;13.776;2023-05-10T13:42:37;3.30;;;2.08;;
22166;SDS011;11249;52.468;13.776;2023-05-10T13:45:04;5.38;;;1.73;;
22166;SDS011;11249;52.468;13.776;2023-05-10T13:47:31;2.38;;;1.83;;
22166;SDS011;11249;52.468;13.776;2023-05-10T13:49:58;2.00;;;1.80;;
22166;SDS011;11249;52.468;13.776;2023-05-10T13:52:25;5.10;;;1.80;;
22166;SDS011;11249;52.468;13.776;2023-05-10T13:54:52;4.55;;;1.73;;
22166;SDS011;11249;52.468;13.776;2023-05-10T13:57:21;3.58;;;1.90;;
22166;SDS011;11249;52.468;13.776;2023-05-10T13:59:49;2.80;;;1.63;;
22166;SDS011;11249;52.468;13.776;2023-05-10T14:02:16;4.85;;;1.90;;
22166;SDS011;11249;52.468;13.776;2023-05-10T14:04:43;4.75;;;1.88;;
22166;SDS011;11249;52.468;13.776;2023-05-10T14:07:09;4.35;;;2.40;;
22166;SDS011;11249;52.468;13.776;2023-05-10T14:09:36;2.25;;;1.65;;
22166;SDS011;11249;52.468;13.776;2023-05-10T14:12:03;2.25;;;1.80;;
22166;SDS011;11249;52.468;13.776;2023-05-10T14:14:30;3.50;;;2.38;;
22166;SDS011;11249;52.468;13.776;2023-05-10T14:16:56;3.40;;;2.42;;
22166;SDS011;11249;52.468;13.776;2023-05-10T14:19:23;4.50;;;1.90;;
22166;SDS011;11249;52.468;13.776;2023-05-10T14:21:50;4.35;;;1.90;;
22166;SDS011;11249;52.468;13.776;2023-05-10T14:24:18;3.75;;;2.05;;
22166;SDS011;11249;52.468;13.776;2023-05-10T14:26:44;3.28;;;1.95;;
22166;SDS011;11249;52.468;13.776;2023-05-10T14:29:11;4.90;;;1.70;;
22166;SDS011;11249;52.468;13.776;2023-05-10T14:31:38;2.10;;;1.90;;
22166;SDS011;11249;52.468;13.776;2023-05-10T14:34:06;5.35;;;1.90;;
22166;SDS011;11249;52.468;13.776;2023-05-10T14:36:32;3.22;;;1.75;;
22166;SDS011;11249;52.468;13.776;2023-05-10T14:38:59;4.72;;;1.92;;
22166;SDS011;11249;52.468;13.776;2023-05-10T14:41:26;6.95;;;1.70;;
22166;SDS011;11249;52.468;13.776;2023-05-10T14:43:53;3.40;;;1.85;;
22166;SDS011;11249;52.468;13.776;2023-05-10T14:46:19;5.32;;;1.77;;
22166;SDS011;11249;52.468;13.776;2023-05-10T14:48:47;3.92;;;1.63;;
22166;SDS011;11249;52.468;13.776;2023-05-10T14:51:13;2.17;;;1.85;;
22166;SDS011;11249;52.468;13.776;2023-05-10T14:53:40;3.85;;;1.80;;
22166;SDS011;11249;52.468;13.776;2023-05-10T14:56:07;4.68;;;1.77;;
22166;SDS011;11249;52.468;13.776;2023-05-10T14:58:33;4.25;;;1.73;;
22166;SDS011;11249;52.468;13.776;2023-05-10T15:01:00;3.45;;;1.83;;
22166;SDS011;11249;52.468;13.776;2023-05-10T15:03:27;3.80;;;1.60;;
22166;SDS011;11249;52.468;13.776;2023-05-10T15:05:55;3.33;;;1.73;;
22166;SDS011;11249;52.468;13.776;2023-05-10T15:08:23;7.40;;;1.90;;
22166;SDS011;11249;52.468;13.776;2023-05-10T15:10:53;4.75;;;1.63;;
22166;SDS011;11249;52.468;13.776;2023-05-10T15:13:21;4.13;;;1.65;;
22166;SDS011;11249;52.468;13.776;2023-05-10T15:15:48;4.40;;;2.00;;
22166;SDS011;11249;52.468;13.776;2023-05-10T15:18:15;5.03;;;2.03;;
22166;SDS011;11249;52.468;13.776;2023-05-10T15:20:41;3.40;;;2.03;;
22166;SDS011;11249;52.468;13.776;2023-05-10T15:23:08;3.30;;;1.88;;